Time;durP1;ratioP1;P1;durP2;ratioP2;P2;SDS_P1;SDS_P2;PMS_P1;PMS_P2;Temp;Humidity;BMP_temperature;BMP_pressure;BME280_temperature;BME280_humidity;BME280_pressure;Samples;Min_cycle;Max_cycle;Signal;HPM_P1;HPM_P2
2021/04/20 00:01:02;;;;;;;22.17;17.88;;;;;;;9.90;66.55;100367.13;10275062;28;20419;-61
2021/04/20 00:06:05;;;;;;;19.48;17.48;;;;;;;9.83;66.43;100365.91;10258119;28;20058;-59
2021/04/20 00:11:06;;;;;;;20.77;18.02;;;;;;;9.83;66.63;100359.72;10259280;28;20445;-59
2021/04/20 00:16:07;;;;;;;20.35;18.15;;;;;;;9.81;66.58;100362.50;10255369;28;20051;-56
2021/04/20 00:21:08;;;;;;;22.58;18.23;;;;;;;9.68;66.79;100340.47;10259282;28;20385;-56
2021/04/20 00:26:09;;;;;;;20.67;18.50;;;;;;;9.62;66.97;100341.75;10256135;28;20101;-58
2021/04/20 00:31:10;;;;;;;21.13;18.92;;;;;;;9.63;67.08;100353.25;10261061;28;20093;-63
2021/04/20 00:36:12;;;;;;;20.83;18.40;;;;;;;9.75;66.72;100352.34;10264634;28;20189;-58
2021/04/20 00:41:14;;;;;;;18.95;17.05;;;;;;;9.84;66.66;100346.31;10256125;28;20138;-56
2021/04/20 00:46:22;;;;;;;19.42;17.33;;;;;;;9.78;66.38;100340.63;10260397;28;20069;-63
2021/04/20 00:51:23;;;;;;;19.80;17.70;;;;;;;9.74;66.85;100337.34;10249681;28;20054;-59
2021/04/20 00:56:23;;;;;;;18.38;16.48;;;;;;;9.64;67.24;100341.69;10251813;28;20097;-59
2021/04/20 01:01:24;;;;;;;17.58;15.48;;;;;;;9.47;67.69;100343.78;10254540;28;20133;-57
2021/04/20 01:06:26;;;;;;;17.55;15.75;;;;;;;9.29;68.62;100345.13;10257947;28;20277;-60
2021/04/20 01:11:27;;;;;;;20.17;18.17;;;;;;;9.28;68.88;100346.94;10253285;28;20078;-55
2021/04/20 01:16:29;;;;;;;19.10;17.10;;;;;;;9.20;69.29;100342.22;10250808;28;20412;-61
2021/04/20 01:21:32;;;;;;;17.35;15.55;;;;;;;9.16;68.94;100340.72;10256666;28;20044;-58
2021/04/20 01:26:42;;;;;;;18.23;16.17;;;;;;;9.06;69.58;100325.59;10253574;28;20088;-57
2021/04/20 01:31:44;;;;;;;18.70;16.25;;;;;;;8.99;69.40;100333.13;10252317;28;20132;-57
2021/04/20 01:36:45;;;;;;;21.08;17.25;;;;;;;8.96;70.02;100346.63;10253336;28;20388;-57
2021/04/20 01:41:47;;;;;;;20.00;17.75;;;;;;;8.83;69.91;100328.94;10255332;28;20105;-63
2021/04/20 01:46:48;;;;;;;19.33;17.30;;;;;;;8.83;69.72;100334.25;10252438;28;20055;-60
2021/04/20 01:51:52;;;;;;;18.38;16.30;;;;;;;8.75;69.75;100331.31;10252344;28;20057;-59
2021/04/20 01:56:56;;;;;;;19.80;16.50;;;;;;;8.67;70.20;100339.78;10259841;28;20054;-60
2021/04/20 02:01:58;;;;;;;19.13;17.07;;;;;;;8.61;70.62;100334.09;10258597;28;20066;-57
2021/04/20 02:06:59;;;;;;;19.13;17.02;;;;;;;8.57;70.67;100333.47;10252909;28;20386;-60
2021/04/20 02:12:00;;;;;;;18.42;16.35;;;;;;;8.51;70.55;100333.03;10256364;28;20063;-57
2021/04/20 02:17:02;;;;;;;20.52;17.83;;;;;;;8.46;71.02;100339.50;10262362;28;20670;-59
2021/04/20 02:22:03;;;;;;;18.25;16.35;;;;;;;8.39;70.67;100334.72;10251705;28;20195;-59
2021/04/20 02:32:13;;;;;;;18.48;16.52;;;;;;;8.26;70.93;100329.44;10240754;28;20054;-60
2021/04/20 02:37:17;;;;;;;19.73;17.73;;;;;;;8.24;71.00;100336.63;10247519;28;20065;-63
2021/04/20 02:42:18;;;;;;;19.30;16.58;;;;;;;8.24;71.34;100336.63;10249148;28;20071;-63
2021/04/20 02:47:21;;;;;;;18.17;15.75;;;;;;;8.42;70.51;100343.31;10256749;28;20051;-63
2021/04/20 02:52:23;;;;;;;18.70;16.70;;;;;;;8.49;69.86;100341.94;10255823;28;20054;-61
2021/04/20 02:57:26;;;;;;;18.20;16.08;;;;;;;8.42;70.27;100342.47;10258312;28;20043;-61
2021/04/20 03:02:28;;;;;;;20.08;16.73;;;;;;;8.26;70.62;100340.03;10253163;28;20090;-61
2021/04/20 03:07:29;;;;;;;18.88;16.88;;;;;;;8.13;71.12;100340.88;10275162;28;20078;-61
2021/04/20 03:12:30;;;;;;;18.67;16.67;;;;;;;8.13;71.04;100340.88;10257194;28;20412;-62
2021/04/20 03:17:32;;;;;;;19.65;16.98;;;;;;;8.18;70.74;100334.41;10255928;28;20105;-60
2021/04/20 03:22:33;;;;;;;20.05;16.23;;;;;;;8.11;70.39;100337.47;10263822;28;20058;-61
2021/04/20 03:27:36;;;;;;;16.48;14.77;;;;;;;8.12;70.49;100333.03;10258985;28;20133;-62
2021/04/20 03:32:40;;;;;;;20.25;18.00;;;;;;;8.07;71.18;100330.69;10258719;28;20067;-62
2021/04/20 03:37:49;;;;;;;18.37;15.87;;;;;;;8.11;71.02;100337.47;10254022;28;20047;-62
2021/04/20 03:42:55;;;;;;;18.90;16.05;;;;;;;8.06;71.19;100334.31;10258016;28;20054;-62
2021/04/20 03:48:03;;;;;;;18.27;16.25;;;;;;;8.19;70.90;100328.16;10256626;28;20062;-62
2021/04/20 03:53:13;;;;;;;18.63;16.42;;;;;;;8.08;70.92;100326.25;10252484;28;20189;-61
2021/04/20 03:58:17;;;;;;;21.75;19.42;;;;;;;7.89;72.45;100324.00;10268287;28;20065;-60
2021/04/20 04:03:25;;;;;;;20.10;17.92;;;;;;;7.90;72.42;100333.66;10252306;28;20055;-61
2021/04/20 04:08:28;;;;;;;21.13;17.98;;;;;;;8.00;72.46;100333.88;10258686;28;20085;-60
2021/04/20 04:13:31;;;;;;;21.60;17.73;;;;;;;8.16;71.41;100339.81;10251595;28;20109;-60
2021/04/20 04:18:34;;;;;;;21.58;18.15;;;;;;;8.09;72.00;100343.84;10266602;28;21189;-61
2021/04/20 04:23:53;;;;;;;23.85;19.15;;;;;;;7.87;73.36;100340.00;10255320;28;20058;-61
2021/04/20 04:28:58;;;;;;;22.38;18.92;;;;;;;7.83;73.67;100340.34;10250780;28;20527;-61
2021/04/20 04:34:00;;;;;;;21.38;18.27;;;;;;;7.83;73.60;100333.22;10244913;28;20484;-61
2021/04/20 04:39:02;;;;;;;24.70;19.73;;;;;;;7.78;73.98;100328.22;10257460;28;20342;-61
2021/04/20 04:44:03;;;;;;;29.23;20.55;;;;;;;7.66;74.60;100344.97;10254078;28;20062;-61
2021/04/20 04:49:06;;;;;;;25.75;19.63;;;;;;;7.63;75.22;100345.16;10271075;28;20078;-61
2021/04/20 04:54:14;;;;;;;23.73;18.65;;;;;;;7.58;74.99;100340.19;10275845;28;20057;-61
2021/04/20 04:59:19;;;;;;;26.63;20.95;;;;;;;7.69;74.88;100341.25;10249232;28;20081;-61
2021/04/20 05:04:24;;;;;;;25.83;20.38;;;;;;;7.77;74.60;100345.06;10251502;28;20043;-61
2021/04/20 05:09:26;;;;;;;22.55;18.95;;;;;;;7.76;74.63;100348.69;10258243;28;20130;-62
2021/04/20 05:14:27;;;;;;;22.05;19.58;;;;;;;7.95;74.99;100350.09;10253092;28;20054;-62
2021/04/20 05:19:33;;;;;;;33.92;18.10;;;;;;;7.95;74.91;100352.75;10252660;28;20562;-61
2021/04/20 05:24:34;;;;;;;25.80;19.92;;;;;;;7.94;75.72;100356.34;10245933;28;20062;-62
2021/04/20 05:29:34;;;;;;;26.77;21.13;;;;;;;7.91;76.65;100367.16;10249724;28;20140;-61
2021/04/20 05:34:36;;;;;;;26.75;18.17;;;;;;;7.84;76.42;100366.72;10253788;28;20140;-62
2021/04/20 05:39:37;;;;;;;29.90;20.85;;;;;;;7.82;77.13;100362.47;10247260;28;20046;-60
2021/04/20 05:44:38;;;;;;;34.00;22.85;;;;;;;7.81;77.54;100366.94;10250541;28;20413;-62
2021/04/20 05:49:39;;;;;;;31.48;22.88;;;;;;;7.89;77.25;100361.13;10259743;28;20051;-62
2021/04/20 05:54:40;;;;;;;31.77;22.75;;;;;;;8.09;76.50;100355.31;10258657;28;20523;-62
2021/04/20 05:59:41;;;;;;;32.47;22.02;;;;;;;8.09;76.66;100360.63;10257627;28;20051;-63
2021/04/20 06:04:45;;;;;;;29.63;20.08;;;;;;;8.08;75.99;100353.59;10253655;28;20047;-63
2021/04/20 06:09:47;;;;;;;25.33;19.88;;;;;;;8.00;75.78;100360.38;10256375;28;20051;-61
2021/04/20 06:14:51;;;;;;;34.20;20.75;;;;;;;7.96;75.86;100362.41;10266895;28;20051;-62
2021/04/20 06:19:52;;;;;;;20.95;17.23;;;;;;;8.22;74.41;100373.03;10272762;28;20051;-62
2021/04/20 06:24:54;;;;;;;24.65;19.70;;;;;;;8.26;74.97;100361.25;10271915;28;20569;-62
2021/04/20 06:29:57;;;;;;;22.75;19.70;;;;;;;8.48;74.67;100372.09;10263267;28;20218;-62
2021/04/20 06:34:59;;;;;;;23.17;18.33;;;;;;;8.54;74.16;100369.97;10273031;28;20050;-62
2021/04/20 06:40:00;;;;;;;23.20;17.88;;;;;;;8.70;73.35;100365.28;10273258;28;20053;-62
2021/04/20 06:45:11;;;;;;;20.58;17.52;;;;;;;8.95;72.58;100379.47;10263889;28;20050;-61
2021/04/20 06:50:16;;;;;;;21.85;18.25;;;;;;;8.89;72.30;100370.13;10247979;28;20058;-61
2021/04/20 06:55:48;;;;;;;24.08;20.30;;;;;;;8.90;72.53;100373.63;10265200;28;20416;-61
2021/04/20 07:00:52;;;;;;;25.77;20.33;;;;;;;8.98;72.27;100373.94;10262866;28;20051;-66
2021/04/20 07:06:17;;;;;;;28.58;21.08;;;;;;;8.92;72.14;100363.75;10255161;28;20185;-60
2021/04/20 07:11:18;;;;;;;21.77;19.45;;;;;;;9.18;72.18;100375.97;10255713;28;20051;-60
2021/04/20 07:16:28;;;;;;;22.17;18.85;;;;;;;9.71;69.83;100372.13;10262671;28;20543;-61
2021/04/20 07:21:44;;;;;;;27.33;21.40;;;;;;;9.80;69.33;100366.13;10265850;28;20078;-62
2021/04/20 07:26:51;;;;;;;21.45;18.33;;;;;;;10.12;67.95;100354.84;10277664;28;20053;-61
2021/04/20 07:32:26;;;;;;;22.00;19.55;;;;;;;10.33;66.61;100356.81;10263326;28;20049;-61
2021/04/20 07:37:44;;;;;;;;;;;;;;;10.66;65.92;100353.34;10263079;28;20106;-61
2021/04/20 07:42:52;;;;;;;22.02;18.52;;;;;;;10.96;64.71;100349.22;10260568;28;19930;-62
2021/04/20 07:48:07;;;;;;;23.23;18.80;;;;;;;11.14;63.54;100350.38;10263208;28;20051;-62
2021/04/20 07:53:27;;;;;;;30.45;16.70;;;;;;;11.26;62.91;100351.19;10259878;28;20051;-60
2021/04/20 07:58:39;;;;;;;19.67;17.33;;;;;;;11.72;61.43;100345.69;10272368;28;20146;-60
2021/04/20 08:04:03;;;;;;;21.55;17.75;;;;;;;11.96;60.73;100332.13;10263149;28;20102;-63
2021/04/20 08:09:13;;;;;;;34.30;28.52;;;;;;;12.14;59.97;100335.03;10270391;28;20054;-62
2021/04/20 08:14:25;;;;;;;21.90;18.08;;;;;;;12.64;58.72;100345.84;10261022;28;20054;-61
2021/04/20 08:19:54;;;;;;;21.60;17.83;;;;;;;12.85;57.79;100344.91;10265338;28;20051;-62
2021/04/20 08:25:02;;;;;;;22.80;20.10;;;;;;;12.91;57.05;100339.88;10252305;28;20408;-62
2021/04/20 08:30:13;;;;;;;19.60;16.98;;;;;;;13.36;56.44;100333.25;10276805;28;20054;-62
2021/04/20 08:35:19;;;;;;;21.05;17.42;;;;;;;13.68;55.11;100323.25;10309486;23;20410;-58
2021/04/20 08:40:26;;;;;;;19.20;17.17;;;;;;;14.09;54.03;100313.16;10311106;28;20600;-58
2021/04/20 08:45:42;;;;;;;19.70;17.67;;;;;;;14.36;52.42;100309.69;10299572;28;20074;-58
2021/04/20 08:50:58;;;;;;;19.73;17.73;;;;;;;14.27;52.67;100319.44;10300994;28;20046;-57
2021/04/20 08:56:14;;;;;;;19.90;17.48;;;;;;;14.87;51.02;100314.72;10295702;28;20492;-58
2021/04/20 09:01:36;;;;;;;21.83;19.52;;;;;;;14.61;51.04;100310.06;10291681;28;20061;-58
2021/04/20 09:06:49;;;;;;;20.75;18.15;;;;;;;15.36;50.28;100307.19;10297333;28;20054;-58
2021/04/20 09:11:56;;;;;;;18.52;16.55;;;;;;;15.90;47.17;100291.88;10296293;28;20046;-58
2021/04/20 09:17:06;;;;;;;17.30;15.50;;;;;;;16.28;46.04;100301.53;10311680;28;20042;-56
2021/04/20 09:22:18;;;;;;;17.77;16.08;;;;;;;16.37;45.92;100301.38;10292505;28;20050;-57
2021/04/20 09:27:43;;;;;;;19.17;17.23;;;;;;;16.81;43.67;100281.56;10296254;28;20046;-56
2021/04/20 09:32:52;;;;;;;18.67;16.85;;;;;;;17.24;42.08;100301.19;10297428;28;20870;-57
2021/04/20 09:37:53;;;;;;;17.10;15.40;;;;;;;17.35;43.29;100288.44;10288904;28;21003;-58
2021/04/20 09:42:58;;;;;;;17.63;15.93;;;;;;;17.67;41.06;100290.31;10295169;28;20038;-59
2021/04/20 09:48:30;;;;;;;18.10;16.30;;;;;;;18.30;40.68;100294.09;10297474;28;20038;-58
2021/04/20 09:54:01;;;;;;;19.67;17.35;;;;;;;18.91;38.49;100301.63;10292596;28;20058;-57
2021/04/20 09:59:07;;;;;;;15.85;14.30;;;;;;;18.75;39.09;100288.19;10296573;28;20097;-58
2021/04/20 10:04:17;;;;;;;18.88;16.98;;;;;;;19.36;37.97;100289.19;10297388;28;20384;-58
2021/04/20 10:09:44;;;;;;;15.55;14.02;;;;;;;19.85;36.84;100292.53;10294581;28;20523;-56
2021/04/20 10:15:16;;;;;;;15.27;13.85;;;;;;;20.61;34.90;100270.72;10293873;28;20492;-58
2021/04/20 10:20:22;;;;;;;16.48;14.88;;;;;;;21.78;32.98;100288.63;10299169;28;20498;-58
2021/04/20 10:25:33;;;;;;;15.57;14.07;;;;;;;25.83;25.48;100271.84;10304519;28;20112;-58
2021/04/20 10:30:40;;;;;;;14.57;13.15;;;;;;;28.03;22.69;100268.94;10278939;28;20578;-58
2021/04/20 10:35:43;;;;;;;13.40;12.20;;;;;;;26.17;24.44;100266.94;10293232;28;20244;-58
2021/04/20 10:40:45;;;;;;;13.98;12.65;;;;;;;24.50;26.88;100255.25;10289119;28;20569;-51
2021/04/20 10:45:47;;;;;;;13.95;12.65;;;;;;;24.93;26.54;100259.28;10297225;28;20049;-48
2021/04/20 10:50:51;;;;;;;12.18;10.98;;;;;;;28.83;22.04;100250.06;10297092;28;20050;-48
2021/04/20 10:56:01;;;;;;;12.20;11.20;;;;;;;32.09;17.75;100240.16;10299163;28;20054;-49
2021/04/20 11:01:02;;;;;;;10.98;10.05;;;;;;;33.81;16.05;100236.41;10298754;28;20166;-48
2021/04/20 11:06:06;;;;;;;10.70;9.70;;;;;;;35.24;13.96;100224.94;10299535;28;20046;-49
2021/04/20 11:11:19;;;;;;;9.95;9.15;;;;;;;35.31;13.92;100202.50;10305447;28;20051;-49
2021/04/20 11:16:45;;;;;;;10.10;9.15;;;;;;;35.12;13.57;100199.59;10296877;28;20039;-48
2021/04/20 11:21:48;;;;;;;10.05;8.52;;;;;;;36.35;13.19;100198.34;10303618;28;20518;-48
2021/04/20 11:27:05;;;;;;;8.95;8.25;;;;;;;37.38;12.29;100187.66;10299265;28;20042;-48
2021/04/20 11:32:10;;;;;;;8.10;7.50;;;;;;;37.16;11.70;100186.34;10305460;28;20404;-49
2021/04/20 11:37:18;;;;;;;7.78;7.18;;;;;;;37.02;11.39;100174.38;10305296;28;20525;-49
2021/04/20 11:42:27;;;;;;;9.73;8.15;;;;;;;37.56;11.87;100175.63;10298296;28;20047;-50
2021/04/20 11:47:29;;;;;;;8.18;7.50;;;;;;;37.64;10.74;100171.34;10296872;28;20097;-51
2021/04/20 11:52:32;;;;;;;8.07;7.40;;;;;;;35.85;12.31;100173.75;10295274;28;20042;-62
2021/04/20 11:57:35;;;;;;;9.52;8.73;;;;;;;32.90;14.76;100163.59;10304730;28;20046;-60
2021/04/20 12:02:38;;;;;;;7.78;7.18;;;;;;;30.41;17.22;100158.72;10298832;28;20050;-60
2021/04/20 12:07:40;;;;;;;7.90;7.30;;;;;;;28.26;18.53;100152.28;10294817;28;20217;-61
2021/04/20 12:12:42;;;;;;;7.78;7.00;;;;;;;27.37;19.19;100156.09;10290561;28;20054;-59
2021/04/20 12:17:44;;;;;;;6.90;6.30;;;;;;;26.86;20.06;100143.84;10293603;28;20559;-60
2021/04/20 12:22:52;;;;;;;7.65;6.57;;;;;;;26.65;20.02;100148.78;10299497;28;20053;-60
2021/04/20 12:27:57;;;;;;;6.45;5.88;;;;;;;26.51;20.27;100152.75;10298844;28;20046;-60
2021/04/20 12:32:58;;;;;;;5.93;5.43;;;;;;;26.16;19.96;100139.78;10296013;28;20101;-59
2021/04/20 12:38:01;;;;;;;7.90;7.15;;;;;;;25.97;20.27;100126.13;10295024;28;20517;-60
2021/04/20 12:43:04;;;;;;;6.78;6.28;;;;;;;25.22;21.49;100122.50;10296574;28;20066;-60
2021/04/20 12:48:07;;;;;;;6.03;5.43;;;;;;;25.40;21.68;100126.31;10295246;28;20050;-59
2021/04/20 12:53:10;;;;;;;7.07;6.47;;;;;;;25.06;21.10;100121.16;10295072;28;20423;-60
2021/04/20 12:58:15;;;;;;;5.50;5.00;;;;;;;24.96;22.28;100115.38;10292841;28;20050;-59
2021/04/20 13:03:21;;;;;;;5.63;5.05;;;;;;;24.55;22.12;100115.88;10293992;28;20062;-59
2021/04/20 13:08:24;;;;;;;6.15;5.65;;;;;;;24.33;21.96;100110.75;10294537;28;20043;-59
2021/04/20 13:13:30;;;;;;;6.25;5.65;;;;;;;24.18;23.08;100106.44;10284127;28;20432;-59
2021/04/20 13:18:34;;;;;;;6.20;5.65;;;;;;;23.39;24.21;100104.75;10295822;28;20050;-63
2021/04/20 13:23:36;;;;;;;6.03;5.53;;;;;;;23.51;24.16;100089.50;10276849;28;20054;-59
2021/04/20 13:28:43;;;;;;;5.80;5.30;;;;;;;23.64;24.17;100092.19;10271845;28;20154;-56
2021/04/20 13:33:48;;;;;;;5.35;4.95;;;;;;;23.54;24.20;100080.94;10269531;28;20061;-60
2021/04/20 13:38:58;;;;;;;4.90;4.50;;;;;;;23.37;24.15;100077.00;10273597;28;20069;-60
2021/04/20 13:44:01;;;;;;;5.50;5.00;;;;;;;23.43;24.06;100070.69;10271471;28;20046;-60
2021/04/20 13:49:07;;;;;;;5.43;4.93;;;;;;;23.31;24.18;100065.09;10270989;28;20109;-58
2021/04/20 13:54:10;;;;;;;4.82;4.00;;;;;;;22.82;24.04;100053.63;10270420;28;20050;-58
2021/04/20 13:59:14;;;;;;;;;;;;;;;22.92;23.43;100051.34;10271269;28;20522;-60
2021/04/20 14:04:27;;;;;;;4.55;4.10;;;;;;;22.49;23.97;100059.88;10271161;28;20282;-60
2021/04/20 14:09:52;;;;;;;4.38;3.97;;;;;;;21.47;25.00;100046.13;10270082;28;20149;-59
2021/04/20 14:15:27;;;;;;;4.47;4.07;;;;;;;21.48;25.27;100041.53;10268301;28;20181;-60
2021/04/20 14:20:33;;;;;;;4.30;3.90;;;;;;;21.34;25.50;100038.75;10272187;28;20125;-59
2021/04/20 14:25:36;;;;;;;4.32;3.97;;;;;;;21.02;26.60;100038.34;10268827;28;20097;-59
2021/04/20 14:30:38;;;;;;;4.60;4.20;;;;;;;21.12;26.04;100048.84;10270395;28;20121;-59
2021/04/20 14:35:41;;;;;;;5.28;4.60;;;;;;;20.79;26.57;100026.91;10272326;28;20117;-60
2021/04/20 14:40:45;;;;;;;5.18;4.68;;;;;;;20.35;27.21;100007.19;10289212;23;20058;-69
2021/04/20 14:45:48;;;;;;;5.30;4.40;;;;;;;20.42;27.10;100018.88;10263349;28;20511;-69
2021/04/20 14:50:54;;;;;;;4.85;4.45;;;;;;;20.40;27.11;100012.84;10274473;28;20408;-64
2021/04/20 14:55:57;;;;;;;4.53;4.05;;;;;;;20.46;26.27;100012.06;10282863;28;20130;-56
2021/04/20 15:01:05;;;;;;;3.90;3.50;;;;;;;20.55;28.16;100006.53;10276968;28;20160;-54
2021/04/20 15:06:23;;;;;;;3.97;3.58;;;;;;;20.35;27.10;100007.19;10278462;28;20078;-53
2021/04/20 15:11:26;;;;;;;5.78;4.57;;;;;;;19.88;27.52;100005.88;10275719;28;20050;-53
2021/04/20 15:16:29;;;;;;;4.28;3.88;;;;;;;19.60;27.53;100004.66;10275915;28;20050;-54
2021/04/20 15:21:35;;;;;;;5.13;4.35;;;;;;;19.84;28.02;100002.69;10278864;28;20135;-53
2021/04/20 15:26:53;;;;;;;21.90;6.53;;;;;;;19.86;28.01;99997.09;10278023;28;20137;-66
2021/04/20 15:32:00;;;;;;;7.00;4.10;;;;;;;19.72;28.90;100002.31;10279624;28;20089;-53
2021/04/20 15:37:10;;;;;;;4.20;3.40;;;;;;;20.00;28.68;99998.13;10280004;28;20155;-54
2021/04/20 15:42:12;;;;;;;3.80;3.38;;;;;;;19.94;28.10;100002.41;10278595;28;20062;-55
2021/04/20 15:47:15;;;;;;;5.05;4.07;;;;;;;20.01;28.10;99997.06;10276127;28;20301;-62
2021/04/20 15:52:20;;;;;;;5.07;4.32;;;;;;;19.39;29.85;99989.25;10277779;28;20207;-53
2021/04/20 15:57:26;;;;;;;5.25;4.75;;;;;;;19.28;31.63;99995.13;10275941;28;20114;-51
2021/04/20 16:02:31;;;;;;;4.97;4.47;;;;;;;19.12;29.23;99990.75;10275859;28;20058;-52
2021/04/20 16:07:33;;;;;;;4.25;3.75;;;;;;;19.03;30.16;99986.47;10273200;28;20125;-52
2021/04/20 16:12:38;;;;;;;4.28;3.67;;;;;;;18.95;31.55;99990.09;10288273;28;20137;-52
2021/04/20 16:17:42;;;;;;;4.50;4.10;;;;;;;19.04;31.03;99988.16;10275610;28;20466;-52
2021/04/20 16:23:05;;;;;;;5.82;4.70;;;;;;;18.99;30.19;99988.72;10274781;28;20103;-54
2021/04/20 16:28:10;;;;;;;4.82;4.18;;;;;;;19.06;30.87;99981.53;10274482;28;20054;-52
2021/04/20 16:33:17;;;;;;;4.90;4.50;;;;;;;19.05;30.56;99985.28;10270297;28;20102;-51
2021/04/20 16:38:38;;;;;;;4.05;3.65;;;;;;;18.81;30.90;99980.09;10274216;28;20157;-52
2021/04/20 16:43:59;;;;;;;4.38;3.78;;;;;;;18.79;30.38;99985.66;10264823;28;20054;-63
2021/04/20 16:49:04;;;;;;;5.55;4.47;;;;;;;18.64;32.17;99974.84;10266477;28;20058;-62
2021/04/20 16:54:20;;;;;;;4.82;4.35;;;;;;;18.41;31.28;99976.78;10266381;28;20382;-62
2021/04/20 16:59:59;;;;;;;5.35;4.85;;;;;;;18.24;32.44;99965.28;10270014;28;20096;-62
2021/04/20 17:05:21;;;;;;;4.43;4.03;;;;;;;18.33;32.60;99973.13;10275443;28;20480;-62
2021/04/20 17:10:47;;;;;;;4.80;4.38;;;;;;;18.21;32.73;99974.56;10262140;28;20058;-61
2021/04/20 17:16:23;;;;;;;5.88;5.30;;;;;;;18.17;32.60;99976.75;10266316;28;20137;-62
2021/04/20 17:21:52;;;;;;;5.35;4.80;;;;;;;17.98;32.03;99978.06;10266993;28;20634;-62
2021/04/20 17:26:55;;;;;;;4.85;4.35;;;;;;;17.79;32.07;99973.97;10264084;28;20447;-62
2021/04/20 17:32:35;;;;;;;5.18;4.68;;;;;;;17.76;32.27;99978.84;10265126;28;20133;-62
2021/04/20 17:37:54;;;;;;;6.03;5.32;;;;;;;17.54;32.76;99989.41;10267655;28;20046;-62
2021/04/20 17:43:07;;;;;;;5.30;4.80;;;;;;;17.39;33.35;99988.47;10265320;28;20046;-58
2021/04/20 17:48:29;;;;;;;45.03;26.87;;;;;;;17.55;35.29;99991.09;10276041;28;20515;-58
2021/04/20 17:54:05;;;;;;;10.18;7.13;;;;;;;17.57;33.82;99986.34;10276761;28;20437;-58
2021/04/20 17:59:25;;;;;;;4.65;4.22;;;;;;;17.29;33.92;99994.91;10273998;28;20097;-58
2021/04/20 18:05:05;;;;;;;6.18;4.82;;;;;;;17.13;34.54;99995.78;10276335;28;20055;-58
2021/04/20 18:10:12;;;;;;;6.72;4.43;;;;;;;17.16;34.57;99999.13;10277385;28;20617;-59
2021/04/20 18:15:59;;;;;;;5.20;4.70;;;;;;;17.08;35.35;100003.53;10285874;28;20782;-59
2021/04/20 18:21:03;;;;;;;5.20;4.70;;;;;;;16.98;34.79;100004.72;10282631;28;20144;-58
2021/04/20 18:26:27;;;;;;;4.35;3.95;;;;;;;16.79;35.50;100010.25;10278048;28;20108;-61
2021/04/20 18:31:40;;;;;;;11.32;10.23;;;;;;;16.84;37.57;100014.28;10272478;28;20137;-61
2021/04/20 18:36:56;;;;;;;7.72;7.03;;;;;;;16.81;37.17;100017.31;10271520;28;20380;-62
2021/04/20 18:42:04;;;;;;;6.57;5.88;;;;;;;16.75;37.28;100018.84;10269940;28;20211;-62
2021/04/20 18:47:43;;;;;;;6.32;5.63;;;;;;;16.57;38.25;100021.69;10273414;28;20105;-61
2021/04/20 18:53:10;;;;;;;6.90;5.25;;;;;;;16.43;37.98;100025.91;10273626;28;20133;-63
2021/04/20 18:58:34;;;;;;;6.28;5.22;;;;;;;16.41;38.52;100031.44;10273781;28;20176;-61
2021/04/20 19:03:36;;;;;;;9.50;6.43;;;;;;;16.41;39.39;100044.03;10254733;28;20047;-62
2021/04/20 19:08:52;;;;;;;7.68;6.38;;;;;;;16.32;40.00;100034.28;10263657;28;21493;-61
2021/04/20 19:14:17;;;;;;;8.00;6.55;;;;;;;16.30;40.28;100044.34;10262128;28;20161;-61
2021/04/20 19:19:35;;;;;;;8.23;6.78;;;;;;;16.21;40.25;100049.72;10265368;28;21299;-61
2021/04/20 19:24:41;;;;;;;8.20;6.80;;;;;;;16.10;38.56;100047.34;10268365;28;20050;-62
2021/04/20 19:30:04;;;;;;;6.95;6.25;;;;;;;16.05;40.53;100050.53;10269316;28;20652;-61
2021/04/20 19:35:08;;;;;;;7.47;6.55;;;;;;;16.02;40.08;100050.84;10269504;28;20149;-63
2021/04/20 19:40:26;;;;;;;7.88;6.68;;;;;;;15.96;39.09;100045.28;10268474;28;20054;-62
2021/04/20 19:45:30;;;;;;;7.93;6.35;;;;;;;15.87;40.63;100053.31;10267184;28;20062;-64
2021/04/20 19:50:34;;;;;;;7.30;6.15;;;;;;;15.82;42.30;100060.19;10271325;28;20508;-62
2021/04/20 19:55:38;;;;;;;10.15;6.82;;;;;;;15.73;42.87;100060.13;10269435;28;20065;-63
2021/04/20 20:00:43;;;;;;;10.23;6.65;;;;;;;15.62;43.22;100052.34;10268701;28;20516;-63
2021/04/20 20:05:45;;;;;;;9.57;8.02;;;;;;;15.60;44.03;100058.88;10269075;28;22074;-63
2021/04/20 20:10:48;;;;;;;10.88;8.35;;;;;;;15.52;43.79;100059.69;10268789;28;20093;-63
2021/04/20 20:15:53;;;;;;;10.50;7.10;;;;;;;15.37;41.31;100060.28;10270613;28;20578;-63
2021/04/20 20:20:58;;;;;;;7.47;6.78;;;;;;;15.36;43.83;100057.78;10270178;28;20073;-63
2021/04/20 20:25:59;;;;;;;6.65;5.95;;;;;;;15.33;41.80;100052.72;10270791;28;20177;-64
2021/04/20 20:31:04;;;;;;;8.40;6.93;;;;;;;15.09;43.19;100054.25;10269090;28;20050;-63
2021/04/20 20:36:09;;;;;;;8.05;7.10;;;;;;;15.16;43.65;100074.09;10266327;28;20503;-63
2021/04/20 20:46:31;;;;;;;9.63;8.32;;;;;;;15.01;44.55;100071.13;10255910;28;20101;-59
2021/04/20 20:51:37;;;;;;;7.75;7.00;;;;;;;15.05;45.36;100063.59;10252939;28;20116;-57
2021/04/20 20:56:43;;;;;;;8.43;7.63;;;;;;;15.03;45.54;100074.50;10247134;28;20427;-59
2021/04/20 21:01:45;;;;;;;9.20;8.30;;;;;;;14.97;46.01;100066.25;10255994;28;20046;-58
2021/04/20 21:06:50;;;;;;;8.70;7.80;;;;;;;14.91;45.36;100082.94;10259907;28;20097;-58
2021/04/20 21:11:55;;;;;;;9.43;8.48;;;;;;;14.70;47.65;100076.09;10265076;28;20055;-58
2021/04/20 21:17:04;;;;;;;11.50;8.43;;;;;;;14.62;47.78;100073.31;10265620;28;20098;-57
2021/04/20 21:22:07;;;;;;;10.50;9.40;;;;;;;14.51;48.17;100069.00;10256064;28;20073;-58
2021/04/20 21:27:13;;;;;;;10.18;9.02;;;;;;;14.46;49.21;100082.88;10263943;28;20051;-58
2021/04/20 21:32:21;;;;;;;11.77;10.63;;;;;;;14.13;49.49;100058.44;10260296;28;20471;-59
2021/04/20 21:37:23;;;;;;;11.57;10.48;;;;;;;14.19;50.33;100072.22;10247456;28;20050;-59
2021/04/20 21:42:33;;;;;;;12.00;10.77;;;;;;;14.06;51.01;100073.41;10262659;28;20059;-59
2021/04/20 21:47:34;;;;;;;11.43;10.27;;;;;;;14.03;51.18;100067.53;10255861;28;20039;-58
2021/04/20 21:52:50;;;;;;;11.63;10.35;;;;;;;13.90;52.00;100065.19;10260694;28;20137;-58
2021/04/20 21:57:55;;;;;;;10.15;9.15;;;;;;;13.94;52.39;100074.63;10262889;28;20068;-58
2021/04/20 22:03:01;;;;;;;10.85;9.75;;;;;;;13.76;53.28;100066.56;10262565;28;20092;-58
2021/04/20 22:08:03;;;;;;;9.88;8.90;;;;;;;13.85;52.91;100078.19;10264349;28;20058;-59
2021/04/20 22:13:06;;;;;;;10.38;8.40;;;;;;;13.75;53.91;100076.41;10262154;28;20101;-60
2021/04/20 22:18:07;;;;;;;10.48;9.48;;;;;;;13.69;54.06;100081.50;10265302;28;20061;-58
2021/04/20 22:23:23;;;;;;;10.60;9.60;;;;;;;13.63;54.89;100077.63;10262548;28;20480;-58
2021/04/20 22:28:33;;;;;;;10.80;9.77;;;;;;;13.58;54.82;100085.22;10263258;28;20063;-58
2021/04/20 22:33:42;;;;;;;9.82;8.60;;;;;;;13.49;55.16;100081.59;10262109;28;20419;-59
2021/04/20 22:38:46;;;;;;;9.90;8.90;;;;;;;13.47;55.33;100083.56;10248875;28;20404;-58
2021/04/20 22:44:05;;;;;;;11.07;8.68;;;;;;;13.46;55.83;100087.22;10250993;28;20574;-60
2021/04/20 22:49:16;;;;;;;10.95;9.90;;;;;;;13.40;55.74;100082.47;10263949;28;20566;-59
2021/04/20 22:54:21;;;;;;;10.02;9.15;;;;;;;13.27;56.12;100077.44;10263432;28;20043;-64
2021/04/20 22:59:29;;;;;;;10.18;9.18;;;;;;;13.32;56.01;100090.34;10268608;28;20061;-57
2021/04/20 23:04:32;;;;;;;9.02;8.13;;;;;;;13.27;56.66;100088.13;10268484;28;20046;-58
2021/04/20 23:09:36;;;;;;;10.98;10.02;;;;;;;13.24;56.37;100089.25;10271926;28;20054;-58
2021/04/20 23:14:42;;;;;;;10.23;9.23;;;;;;;13.19;56.93;100090.66;10276328;28;20051;-57
2021/04/20 23:19:46;;;;;;;9.20;8.38;;;;;;;13.09;57.79;100078.16;10271774;28;20309;-58
2021/04/20 23:24:55;;;;;;;10.13;9.13;;;;;;;13.11;57.42;100090.56;10254983;28;20847;-58
2021/04/20 23:30:22;;;;;;;11.52;9.57;;;;;;;13.03;57.70;100086.75;10252966;28;20454;-58
2021/04/20 23:35:25;;;;;;;9.82;8.98;;;;;;;12.98;58.13;100081.00;10263714;28;20050;-57